createdAt,value
2023-02-26T00:01:30.136Z,11.15
2023-02-26T00:04:31.832Z,11.14
2023-02-26T00:07:33.510Z,11.13
2023-02-26T00:10:35.274Z,11.10
2023-02-26T00:13:38.200Z,11.07
2023-02-26T00:16:40.254Z,11.03
2023-02-26T00:19:42.135Z,11.02
2023-02-26T00:22:44.590Z,11.01
2023-02-26T00:25:47.056Z,11.00
2023-02-26T00:28:50.062Z,10.98
2023-02-26T00:31:51.973Z,10.97
2023-02-26T00:34:53.918Z,10.97
2023-02-26T00:38:06.102Z,10.96
2023-02-26T00:41:08.859Z,10.96
2023-02-26T00:44:20.857Z,10.96
2023-02-26T00:47:25.649Z,10.97
2023-02-26T00:50:28.092Z,10.94
2023-02-26T00:53:39.754Z,10.92
2023-02-26T00:56:42.819Z,10.91
2023-02-26T00:59:44.438Z,10.91
2023-02-26T01:02:46.906Z,10.91
2023-02-26T01:05:48.740Z,10.91
2023-02-26T01:08:57.325Z,10.93
2023-02-26T01:12:01.738Z,10.97
2023-02-26T01:15:07.074Z,10.99
2023-02-26T01:18:22.013Z,11.00
2023-02-26T01:21:30.021Z,10.99
2023-02-26T01:24:31.664Z,10.98
2023-02-26T01:27:33.834Z,10.94
2023-02-26T01:30:35.896Z,10.90
2023-02-26T01:33:45.421Z,10.91
2023-02-26T01:36:56.630Z,10.94
2023-02-26T01:40:10.517Z,10.98
2023-02-26T01:43:18.332Z,11.02
2023-02-26T01:46:54.965Z,11.07
2023-02-26T01:49:56.969Z,11.12
2023-02-26T01:53:25.710Z,11.16
2023-02-26T01:56:27.853Z,11.21
2023-02-26T01:59:29.826Z,11.25
2023-02-26T02:02:32.266Z,11.28
2023-02-26T02:05:47.764Z,11.31
2023-02-26T02:08:49.458Z,11.33
2023-02-26T02:12:08.512Z,11.36
2023-02-26T02:15:25.368Z,11.37
2023-02-26T02:18:46.624Z,11.39
2023-02-26T02:21:55.583Z,11.41
2023-02-26T02:25:08.082Z,11.31
2023-02-26T02:28:32.174Z,11.05
2023-02-26T02:31:37.347Z,10.70
2023-02-26T02:34:47.163Z,10.38
2023-02-26T02:37:56.472Z,10.07
2023-02-26T02:41:13.529Z,9.81
2023-02-26T02:44:19.283Z,9.57
2023-02-26T02:47:22.009Z,9.38
2023-02-26T02:50:46.254Z,9.21
2023-02-26T02:53:53.141Z,9.04
2023-02-26T02:56:59.913Z,8.88
2023-02-26T03:00:06.165Z,8.75
2023-02-26T03:03:14.027Z,8.64
2023-02-26T03:06:15.755Z,8.56
2023-02-26T03:09:17.313Z,8.47
2023-02-26T03:12:18.965Z,8.40
2023-02-26T03:15:31.977Z,8.34
2023-02-26T03:18:45.736Z,8.29
2023-02-26T03:22:02.365Z,8.22
2023-02-26T03:25:35.720Z,8.16
2023-02-26T03:29:04.344Z,8.13
2023-02-26T03:32:11.589Z,8.11
2023-02-26T03:35:26.858Z,8.06
2023-02-26T03:38:50.425Z,8.03
2023-02-26T03:42:08.579Z,7.96
2023-02-26T03:45:29.318Z,7.89
2023-02-26T03:48:31.727Z,7.84
2023-02-26T03:51:33.968Z,7.80
2023-02-26T03:55:14.302Z,7.75
2023-02-26T03:58:27.481Z,7.70
2023-02-26T04:01:54.747Z,7.64
2023-02-26T04:05:04.610Z,7.60
2023-02-26T04:08:07.020Z,7.56
2023-02-26T04:11:17.326Z,7.51
2023-02-26T04:14:19.370Z,7.48
2023-02-26T04:17:21.060Z,7.44
2023-02-26T04:20:22.707Z,7.41
2023-02-26T04:23:24.424Z,7.37
2023-02-26T04:26:26.802Z,7.31
2023-02-26T04:29:28.847Z,7.26
2023-02-26T04:32:30.519Z,7.23
2023-02-26T04:35:32.100Z,7.19
2023-02-26T04:38:33.744Z,7.16
2023-02-26T04:41:35.541Z,7.13
2023-02-26T04:44:37.306Z,7.11
2023-02-26T04:47:38.833Z,7.09
2023-02-26T04:50:40.810Z,7.09
2023-02-26T04:53:42.333Z,7.09
2023-02-26T04:56:44.522Z,7.08
2023-02-26T04:59:46.244Z,7.08
2023-02-26T05:02:48.200Z,7.08
2023-02-26T05:05:49.806Z,7.06
2023-02-26T05:08:51.471Z,7.03
2023-02-26T05:11:53.311Z,7.00
2023-02-26T05:14:54.928Z,6.96
2023-02-26T05:17:56.536Z,6.92
2023-02-26T05:20:58.815Z,6.90
2023-02-26T05:24:03.182Z,6.86
2023-02-26T05:27:05.249Z,6.83
2023-02-26T05:30:08.587Z,6.80
2023-02-26T05:33:10.739Z,6.76
2023-02-26T05:36:12.951Z,6.74
2023-02-26T05:39:17.134Z,6.72
2023-02-26T05:42:18.791Z,6.69
2023-02-26T05:45:20.414Z,6.68
2023-02-26T05:48:22.907Z,6.67
2023-02-26T05:51:24.551Z,6.67
2023-02-26T05:54:26.264Z,6.66
2023-02-26T05:57:28.134Z,6.67
2023-02-26T06:00:29.799Z,6.72
2023-02-26T06:03:33.918Z,6.77
2023-02-26T06:06:35.848Z,6.79
2023-02-26T06:09:38.353Z,6.81
2023-02-26T06:12:40.188Z,6.79
2023-02-26T06:15:41.767Z,6.79
2023-02-26T06:18:45.684Z,6.79
2023-02-26T06:21:47.762Z,6.77
2023-02-26T06:24:49.939Z,6.77
2023-02-26T06:27:51.522Z,6.74
2023-02-26T06:30:53.977Z,6.71
2023-02-26T06:33:55.603Z,6.67
2023-02-26T06:36:57.734Z,6.65
2023-02-26T06:39:59.349Z,6.64
2023-02-26T06:43:01.112Z,6.62
2023-02-26T06:46:04.190Z,6.60
2023-02-26T06:49:05.917Z,6.59
2023-02-26T06:52:07.643Z,6.56
2023-02-26T06:55:09.890Z,6.55
2023-02-26T06:58:12.020Z,6.53
2023-02-26T07:01:13.625Z,6.52
2023-02-26T07:04:15.258Z,6.52
2023-02-26T07:07:16.872Z,6.53
2023-02-26T07:10:18.552Z,6.53
2023-02-26T07:13:20.202Z,6.53
2023-02-26T07:16:21.939Z,6.53
2023-02-26T07:19:23.448Z,6.52
2023-02-26T07:22:25.155Z,6.49
2023-02-26T07:25:26.820Z,6.47
2023-02-26T07:28:30.992Z,6.46
2023-02-26T07:31:33.157Z,6.46
2023-02-26T07:34:34.857Z,6.45
2023-02-26T07:37:36.672Z,6.43
2023-02-26T07:40:38.367Z,6.44
2023-02-26T07:43:39.950Z,6.45
2023-02-26T07:46:41.515Z,6.45
2023-02-26T07:49:43.126Z,6.45
2023-02-26T07:52:45.509Z,6.48
2023-02-26T07:55:47.427Z,6.47
2023-02-26T07:58:49.119Z,6.51
2023-02-26T08:01:52.048Z,6.56
2023-02-26T08:04:53.806Z,6.63
2023-02-26T08:07:55.411Z,6.68
2023-02-26T08:10:59.969Z,6.74
2023-02-26T08:14:01.606Z,6.79
2023-02-26T08:17:03.220Z,6.83
2023-02-26T08:20:05.255Z,6.87
2023-02-26T08:23:06.880Z,6.92
2023-02-26T08:26:10.345Z,6.96
2023-02-26T08:29:12.190Z,7.01
2023-02-26T08:32:15.954Z,7.09
2023-02-26T08:35:17.776Z,7.19
2023-02-26T08:38:20.544Z,7.29
2023-02-26T08:41:23.381Z,7.38
2023-02-26T08:44:25.125Z,7.45
2023-02-26T08:47:28.954Z,7.52
2023-02-26T08:50:30.799Z,7.57
2023-02-26T08:53:32.350Z,7.60
2023-02-26T08:56:33.863Z,7.63
2023-02-26T08:59:35.426Z,7.67
2023-02-26T09:02:38.261Z,7.74
2023-02-26T09:05:40.974Z,7.80
2023-02-26T09:08:42.581Z,7.85
2023-02-26T09:11:44.161Z,7.91
2023-02-26T09:14:45.881Z,7.96
2023-02-26T09:17:48.016Z,8.02
2023-02-26T09:20:49.587Z,8.07
2023-02-26T09:23:51.106Z,8.13
2023-02-26T09:26:52.658Z,8.19
2023-02-26T09:29:54.211Z,8.22
2023-02-26T09:32:55.753Z,8.27
2023-02-26T09:35:57.326Z,8.33
2023-02-26T09:38:58.899Z,8.38
2023-02-26T09:42:10.021Z,8.43
2023-02-26T09:45:22.101Z,8.49
2023-02-26T09:48:24.518Z,8.54
2023-02-26T09:51:27.215Z,8.61
2023-02-26T09:54:32.891Z,8.69
2023-02-26T09:57:36.399Z,8.75
2023-02-26T10:00:53.917Z,8.81
2023-02-26T10:04:25.012Z,8.87
2023-02-26T10:07:36.486Z,8.96
2023-02-26T10:10:48.445Z,9.08
2023-02-26T10:14:01.481Z,9.22
2023-02-26T10:17:07.315Z,9.35
2023-02-26T10:20:20.418Z,9.47
2023-02-26T10:23:27.231Z,9.58
2023-02-26T10:26:52.032Z,9.70
2023-02-26T10:30:03.912Z,9.80
2023-02-26T10:33:14.566Z,9.89
2023-02-26T10:36:30.867Z,10.00
2023-02-26T10:39:44.820Z,10.08
2023-02-26T10:42:49.237Z,10.13
2023-02-26T10:45:57.556Z,10.18
2023-02-26T10:49:10.926Z,10.22
2023-02-26T10:52:18.092Z,10.26
2023-02-26T10:55:30.883Z,10.28
2023-02-26T10:58:32.526Z,10.34
2023-02-26T11:01:34.164Z,10.40
2023-02-26T11:04:35.794Z,10.44
2023-02-26T11:07:37.903Z,10.50
2023-02-26T11:10:49.283Z,10.55
2023-02-26T11:13:52.101Z,10.59
2023-02-26T11:16:57.354Z,10.61
2023-02-26T11:20:02.199Z,10.62
2023-02-26T11:23:06.687Z,10.62
2023-02-26T11:26:17.611Z,10.63
2023-02-26T11:29:22.189Z,10.63
2023-02-26T11:32:30.246Z,10.66
2023-02-26T11:35:31.940Z,10.68
2023-02-26T11:38:33.899Z,10.67
2023-02-26T11:41:38.589Z,10.65
2023-02-26T11:44:43.945Z,10.65
2023-02-26T11:47:47.220Z,10.64
2023-02-26T11:50:52.538Z,10.61
2023-02-26T11:53:56.140Z,10.52
2023-02-26T11:57:02.962Z,10.46
2023-02-26T12:00:18.993Z,10.43
2023-02-26T12:03:31.062Z,10.42
2023-02-26T12:06:32.987Z,10.40
2023-02-26T12:09:34.518Z,10.35
2023-02-26T12:13:06.306Z,10.30
2023-02-26T12:16:14.306Z,10.23
2023-02-26T12:19:36.368Z,10.20
2023-02-26T12:22:49.898Z,10.15
2023-02-26T12:26:29.938Z,10.11
2023-02-26T12:29:59.511Z,10.09
2023-02-26T12:33:28.768Z,10.08
2023-02-26T12:36:48.316Z,10.08
2023-02-26T12:40:02.035Z,10.10
2023-02-26T12:43:27.927Z,10.13
2023-02-26T12:46:51.327Z,10.17
2023-02-26T12:50:08.460Z,10.16
2023-02-26T12:53:38.428Z,10.13
2023-02-26T12:56:45.604Z,10.12
2023-02-26T13:00:12.885Z,10.09
2023-02-26T13:03:51.984Z,10.06
2023-02-26T13:07:17.892Z,10.04
2023-02-26T13:10:33.669Z,9.99
2023-02-26T13:13:59.251Z,9.94
2023-02-26T13:17:12.132Z,9.87
2023-02-26T13:20:19.942Z,9.82
2023-02-26T13:23:24.148Z,9.78
2023-02-26T13:26:26.090Z,9.73
2023-02-26T13:29:31.020Z,9.68
2023-02-26T13:32:34.172Z,9.68
2023-02-26T13:35:38.471Z,9.65
2023-02-26T13:39:21.515Z,9.60
2023-02-26T13:42:37.096Z,9.58
2023-02-26T13:46:16.018Z,9.56
2023-02-26T13:49:26.009Z,9.57
2023-02-26T13:52:29.967Z,9.57
2023-02-26T13:55:47.945Z,9.58
2023-02-26T13:58:53.995Z,9.54
2023-02-26T14:01:57.993Z,9.50
2023-02-26T14:05:00.368Z,9.48
2023-02-26T14:08:02.116Z,9.46
2023-02-26T14:11:25.336Z,9.46
2023-02-26T14:14:36.190Z,9.47
2023-02-26T14:17:49.039Z,9.49
2023-02-26T14:20:51.112Z,9.47
2023-02-26T14:24:01.340Z,9.46
2023-02-26T14:27:12.152Z,9.42
2023-02-26T14:30:18.752Z,9.37
2023-02-26T14:33:29.399Z,9.31
2023-02-26T14:36:42.628Z,9.24
2023-02-26T14:39:48.782Z,9.19
2023-02-26T14:42:53.264Z,9.15
2023-02-26T14:45:54.972Z,9.12
2023-02-26T14:48:57.542Z,9.08
2023-02-26T14:52:23.480Z,9.05
2023-02-26T14:55:32.550Z,9.03
2023-02-26T14:58:44.287Z,9.01
2023-02-26T15:02:05.624Z,8.98
2023-02-26T15:05:12.928Z,8.98
2023-02-26T15:08:39.722Z,8.99
2023-02-26T15:11:56.599Z,9.01
2023-02-26T15:15:16.075Z,9.03
2023-02-26T15:18:38.900Z,9.03
2023-02-26T15:21:50.046Z,8.99
2023-02-26T15:24:52.088Z,8.97
2023-02-26T15:27:54.112Z,8.91
2023-02-26T15:30:57.624Z,8.87
2023-02-26T15:33:59.581Z,8.85
2023-02-26T15:37:01.442Z,8.79
2023-02-26T15:40:07.236Z,8.75
2023-02-26T15:43:10.129Z,8.74
2023-02-26T15:46:12.192Z,8.74
2023-02-26T15:49:21.118Z,8.72
2023-02-26T15:52:24.976Z,8.69
2023-02-26T15:55:26.770Z,8.65
2023-02-26T15:58:35.241Z,8.59
2023-02-26T16:01:36.954Z,8.52
2023-02-26T16:04:38.816Z,8.47
2023-02-26T16:07:40.949Z,8.44
2023-02-26T16:10:43.440Z,8.42
2023-02-26T16:13:45.664Z,8.41
2023-02-26T16:16:50.780Z,8.38
2023-02-26T16:19:52.919Z,8.34
2023-02-26T16:22:58.559Z,8.33
2023-02-26T16:26:02.861Z,8.33
2023-02-26T16:29:16.638Z,8.32
2023-02-26T16:32:18.868Z,8.30
2023-02-26T16:35:24.374Z,8.27
2023-02-26T16:38:43.128Z,8.22
2023-02-26T16:41:48.088Z,8.16
2023-02-26T16:45:02.885Z,8.10
2023-02-26T16:48:26.093Z,8.07
2023-02-26T16:51:28.818Z,8.03
2023-02-26T16:54:32.928Z,7.96
2023-02-26T16:57:40.358Z,7.91
2023-02-26T17:00:45.553Z,7.84
2023-02-26T17:03:50.910Z,7.79
2023-02-26T17:06:53.236Z,7.74
2023-02-26T17:09:58.776Z,7.70
2023-02-26T17:13:12.842Z,7.69
2023-02-26T17:16:14.729Z,7.67
2023-02-26T17:19:18.302Z,7.65
2023-02-26T17:22:26.220Z,7.64
2023-02-26T17:25:33.373Z,7.62
2023-02-26T17:28:39.889Z,7.60
2023-02-26T17:31:43.640Z,7.59
2023-02-26T17:34:45.326Z,7.59
2023-02-26T17:37:47.197Z,7.57
2023-02-26T17:40:49.141Z,7.54
2023-02-26T17:43:50.866Z,7.52
2023-02-26T17:46:52.643Z,7.52
2023-02-26T17:49:54.345Z,7.50
2023-02-26T17:52:57.405Z,7.49
2023-02-26T17:56:00.097Z,7.46
2023-02-26T17:59:02.189Z,7.44
2023-02-26T18:02:15.622Z,7.43
2023-02-26T18:05:19.326Z,7.42
2023-02-26T18:08:25.810Z,7.41
2023-02-26T18:11:27.883Z,7.40
2023-02-26T18:14:29.766Z,7.38
2023-02-26T18:17:31.452Z,7.37
2023-02-26T18:20:34.083Z,7.36
2023-02-26T18:23:35.733Z,7.35
2023-02-26T18:26:37.327Z,7.33
2023-02-26T18:29:38.944Z,7.31
2023-02-26T18:32:40.604Z,7.28
2023-02-26T18:35:46.183Z,7.27
2023-02-26T18:38:47.730Z,7.24
2023-02-26T18:41:49.413Z,7.23
2023-02-26T18:44:51.765Z,7.21
2023-02-26T18:47:54.216Z,7.19
2023-02-26T18:50:56.401Z,7.17
2023-02-26T18:53:57.984Z,7.14
2023-02-26T18:56:59.629Z,7.14
2023-02-26T19:00:01.458Z,7.12
2023-02-26T19:03:03.387Z,7.10
2023-02-26T19:06:08.817Z,7.08
2023-02-26T19:09:10.486Z,7.04
2023-02-26T19:12:17.619Z,7.01
2023-02-26T19:15:20.812Z,6.99
2023-02-26T19:18:22.498Z,6.96
2023-02-26T19:21:24.389Z,6.94
2023-02-26T19:24:26.104Z,6.91
2023-02-26T19:27:27.713Z,6.90
2023-02-26T19:30:30.104Z,6.90
2023-02-26T19:33:32.192Z,6.89
2023-02-26T19:36:34.097Z,6.89
2023-02-26T19:39:35.694Z,6.88
2023-02-26T19:42:38.011Z,6.87
2023-02-26T19:45:39.660Z,6.86
2023-02-26T19:48:42.316Z,6.85
2023-02-26T19:51:43.968Z,6.83
2023-02-26T19:54:45.590Z,6.82
2023-02-26T19:57:48.350Z,6.81
2023-02-26T20:00:51.303Z,6.80
2023-02-26T20:03:52.956Z,6.80
2023-02-26T20:06:54.690Z,6.78
2023-02-26T20:09:56.357Z,6.76
2023-02-26T20:12:58.400Z,6.73
2023-02-26T20:16:02.020Z,6.72
2023-02-26T20:19:03.706Z,6.73
2023-02-26T20:22:05.519Z,6.72
2023-02-26T20:25:07.473Z,6.71
2023-02-26T20:28:09.457Z,6.68
2023-02-26T20:31:12.813Z,6.64
2023-02-26T20:34:21.246Z,6.62
2023-02-26T20:37:22.983Z,6.59
2023-02-26T20:40:24.632Z,6.58
2023-02-26T20:43:26.352Z,6.54
2023-02-26T20:46:30.574Z,6.51
2023-02-26T20:49:32.316Z,6.49
2023-02-26T20:52:33.971Z,6.49
2023-02-26T20:55:35.973Z,6.48
2023-02-26T20:58:39.275Z,6.48
2023-02-26T21:01:41.099Z,6.47
2023-02-26T21:04:42.830Z,6.46
2023-02-26T21:07:44.656Z,6.45
2023-02-26T21:10:46.328Z,6.43
2023-02-26T21:13:48.271Z,6.42
2023-02-26T21:16:50.114Z,6.41
2023-02-26T21:19:52.218Z,6.41
2023-02-26T21:22:54.477Z,6.43
2023-02-26T21:25:56.185Z,6.44
2023-02-26T21:29:00.014Z,6.46
2023-02-26T21:32:03.779Z,6.46
2023-02-26T21:35:06.684Z,6.45
2023-02-26T21:38:09.066Z,6.45
2023-02-26T21:41:10.852Z,6.45
2023-02-26T21:44:12.627Z,6.45
2023-02-26T21:47:14.297Z,6.44
2023-02-26T21:50:16.673Z,6.45
2023-02-26T21:53:18.251Z,6.45
2023-02-26T21:56:20.381Z,6.45
2023-02-26T21:59:23.412Z,6.46
2023-02-26T22:02:25.142Z,6.45
2023-02-26T22:05:26.718Z,6.44
2023-02-26T22:08:28.396Z,6.44
2023-02-26T22:11:30.065Z,6.42
2023-02-26T22:14:31.766Z,6.40
2023-02-26T22:17:33.304Z,6.39
2023-02-26T22:20:34.890Z,6.39
2023-02-26T22:23:36.750Z,6.38
2023-02-26T22:26:38.408Z,6.36
2023-02-26T22:29:39.955Z,6.34
2023-02-26T22:32:43.783Z,6.32
2023-02-26T22:35:45.339Z,6.28
2023-02-26T22:38:47.000Z,6.24
2023-02-26T22:41:48.600Z,6.21
2023-02-26T22:44:50.123Z,6.20
2023-02-26T22:47:51.816Z,6.19
2023-02-26T22:50:53.310Z,6.19
2023-02-26T22:53:54.915Z,6.17
2023-02-26T22:56:56.812Z,6.18
2023-02-26T22:59:58.443Z,6.17
2023-02-26T23:03:00.307Z,6.18
2023-02-26T23:06:01.811Z,6.19
2023-02-26T23:09:05.827Z,6.19
2023-02-26T23:12:08.041Z,6.18
2023-02-26T23:15:10.512Z,6.18
2023-02-26T23:18:12.233Z,6.17
2023-02-26T23:21:14.465Z,6.18
2023-02-26T23:24:16.124Z,6.17
2023-02-26T23:27:20.558Z,6.18
2023-02-26T23:30:22.197Z,6.19
2023-02-26T23:33:23.759Z,6.19
2023-02-26T23:36:25.363Z,6.18
2023-02-26T23:39:28.498Z,6.18
2023-02-26T23:42:29.992Z,6.17
2023-02-26T23:45:31.560Z,6.16
2023-02-26T23:48:33.271Z,6.15
2023-02-26T23:51:34.897Z,6.15
2023-02-26T23:54:39.654Z,6.14
2023-02-26T23:57:41.250Z,6.16
